sensor_id;sensor_type;location;lat;lon;timestamp;P1;durP1;ratioP1;P2;durP2;ratioP2
70213;SDS011;60138;55.808;37.078;2023-05-10T00:01:56;18.43;;;8.50;;
70213;SDS011;60138;55.808;37.078;2023-05-10T00:04:21;20.20;;;8.87;;
70213;SDS011;60138;55.808;37.078;2023-05-10T00:06:47;16.98;;;8.77;;
70213;SDS011;60138;55.808;37.078;2023-05-10T00:09:13;21.33;;;8.97;;
70213;SDS011;60138;55.808;37.078;2023-05-10T00:11:39;21.13;;;8.68;;
70213;SDS011;60138;55.808;37.078;2023-05-10T00:14:04;15.43;;;8.40;;
70213;SDS011;60138;55.808;37.078;2023-05-10T00:16:30;16.13;;;8.52;;
70213;SDS011;60138;55.808;37.078;2023-05-10T00:18:56;16.67;;;7.20;;
70213;SDS011;60138;55.808;37.078;2023-05-10T00:21:21;12.60;;;8.63;;
70213;SDS011;60138;55.808;37.078;2023-05-10T00:23:47;13.77;;;7.77;;
70213;SDS011;60138;55.808;37.078;2023-05-10T00:26:13;16.52;;;7.97;;
70213;SDS011;60138;55.808;37.078;2023-05-10T00:28:43;15.73;;;8.53;;
70213;SDS011;60138;55.808;37.078;2023-05-10T00:31:09;14.43;;;7.88;;
70213;SDS011;60138;55.808;37.078;2023-05-10T00:33:35;16.23;;;7.57;;
70213;SDS011;60138;55.808;37.078;2023-05-10T00:36:01;15.82;;;7.82;;
70213;SDS011;60138;55.808;37.078;2023-05-10T00:38:28;15.80;;;8.82;;
70213;SDS011;60138;55.808;37.078;2023-05-10T00:40:54;15.02;;;7.40;;
70213;SDS011;60138;55.808;37.078;2023-05-10T00:43:26;12.57;;;7.70;;
70213;SDS011;60138;55.808;37.078;2023-05-10T00:45:52;11.18;;;7.70;;
70213;SDS011;60138;55.808;37.078;2023-05-10T00:48:18;11.65;;;7.68;;
70213;SDS011;60138;55.808;37.078;2023-05-10T00:50:44;12.43;;;7.87;;
70213;SDS011;60138;55.808;37.078;2023-05-10T00:53:11;13.02;;;8.93;;
70213;SDS011;60138;55.808;37.078;2023-05-10T00:55:37;16.70;;;7.75;;
70213;SDS011;60138;55.808;37.078;2023-05-10T00:58:04;13.70;;;7.78;;
70213;SDS011;60138;55.808;37.078;2023-05-10T01:00:30;15.77;;;7.57;;
70213;SDS011;60138;55.808;37.078;2023-05-10T01:02:56;16.92;;;8.68;;
70213;SDS011;60138;55.808;37.078;2023-05-10T01:05:22;14.45;;;7.82;;
70213;SDS011;60138;55.808;37.078;2023-05-10T01:07:47;15.83;;;7.57;;
70213;SDS011;60138;55.808;37.078;2023-05-10T01:10:13;14.60;;;7.63;;
70213;SDS011;60138;55.808;37.078;2023-05-10T01:12:40;13.30;;;8.13;;
70213;SDS011;60138;55.808;37.078;2023-05-10T01:15:07;13.60;;;7.93;;
70213;SDS011;60138;55.808;37.078;2023-05-10T01:17:37;16.33;;;8.45;;
70213;SDS011;60138;55.808;37.078;2023-05-10T01:20:07;19.40;;;8.40;;
70213;SDS011;60138;55.808;37.078;2023-05-10T01:22:44;18.13;;;8.73;;
70213;SDS011;60138;55.808;37.078;2023-05-10T01:34:35;14.80;;;8.30;;
70213;SDS011;60138;55.808;37.078;2023-05-10T01:37:07;13.30;;;8.07;;
70213;SDS011;60138;55.808;37.078;2023-05-10T01:39:45;14.10;;;8.32;;
70213;SDS011;60138;55.808;37.078;2023-05-10T01:42:21;11.55;;;7.97;;
70213;SDS011;60138;55.808;37.078;2023-05-10T01:49:56;16.77;;;9.05;;
70213;SDS011;60138;55.808;37.078;2023-05-10T01:52:30;11.57;;;7.85;;
70213;SDS011;60138;55.808;37.078;2023-05-10T01:55:05;15.45;;;8.45;;
70213;SDS011;60138;55.808;37.078;2023-05-10T01:57:35;15.95;;;8.15;;
70213;SDS011;60138;55.808;37.078;2023-05-10T02:00:03;17.33;;;8.10;;
70213;SDS011;60138;55.808;37.078;2023-05-10T02:02:42;14.57;;;8.00;;
70213;SDS011;60138;55.808;37.078;2023-05-10T02:05:12;14.45;;;8.32;;
70213;SDS011;60138;55.808;37.078;2023-05-10T02:07:39;14.02;;;9.00;;
70213;SDS011;60138;55.808;37.078;2023-05-10T02:10:07;16.92;;;8.93;;
70213;SDS011;60138;55.808;37.078;2023-05-10T02:12:44;13.73;;;7.93;;
70213;SDS011;60138;55.808;37.078;2023-05-10T02:15:15;12.55;;;8.43;;
70213;SDS011;60138;55.808;37.078;2023-05-10T02:17:46;19.25;;;7.65;;
70213;SDS011;60138;55.808;37.078;2023-05-10T02:20:12;14.15;;;7.15;;
70213;SDS011;60138;55.808;37.078;2023-05-10T02:22:41;16.05;;;7.57;;
70213;SDS011;60138;55.808;37.078;2023-05-10T02:25:08;15.10;;;7.13;;
70213;SDS011;60138;55.808;37.078;2023-05-10T02:27:36;12.88;;;7.35;;
70213;SDS011;60138;55.808;37.078;2023-05-10T02:30:02;17.02;;;6.82;;
70213;SDS011;60138;55.808;37.078;2023-05-10T02:32:31;15.82;;;7.85;;
70213;SDS011;60138;55.808;37.078;2023-05-10T02:34:59;14.98;;;7.43;;
70213;SDS011;60138;55.808;37.078;2023-05-10T02:37:30;14.77;;;8.53;;
70213;SDS011;60138;55.808;37.078;2023-05-10T02:39:58;17.85;;;8.23;;
70213;SDS011;60138;55.808;37.078;2023-05-10T02:42:28;11.75;;;7.20;;
70213;SDS011;60138;55.808;37.078;2023-05-10T02:44:59;15.80;;;7.75;;
70213;SDS011;60138;55.808;37.078;2023-05-10T02:47:33;14.10;;;8.02;;
70213;SDS011;60138;55.808;37.078;2023-05-10T02:49:59;15.33;;;7.57;;
70213;SDS011;60138;55.808;37.078;2023-05-10T02:52:26;15.15;;;8.35;;
70213;SDS011;60138;55.808;37.078;2023-05-10T02:54:55;13.82;;;7.95;;
70213;SDS011;60138;55.808;37.078;2023-05-10T02:57:28;16.67;;;7.90;;
70213;SDS011;60138;55.808;37.078;2023-05-10T02:59:58;16.55;;;8.77;;
70213;SDS011;60138;55.808;37.078;2023-05-10T03:02:24;13.57;;;7.67;;
70213;SDS011;60138;55.808;37.078;2023-05-10T03:04:50;13.88;;;8.63;;
70213;SDS011;60138;55.808;37.078;2023-05-10T03:07:16;15.85;;;8.48;;
70213;SDS011;60138;55.808;37.078;2023-05-10T03:09:42;17.63;;;7.60;;
70213;SDS011;60138;55.808;37.078;2023-05-10T03:12:14;18.50;;;9.53;;
70213;SDS011;60138;55.808;37.078;2023-05-10T03:14:55;20.50;;;9.65;;
70213;SDS011;60138;55.808;37.078;2023-05-10T03:20:08;18.77;;;9.98;;
70213;SDS011;60138;55.808;37.078;2023-05-10T03:22:37;21.13;;;10.27;;
70213;SDS011;60138;55.808;37.078;2023-05-10T03:25:06;17.05;;;10.45;;
70213;SDS011;60138;55.808;37.078;2023-05-10T03:27:36;19.73;;;8.75;;
70213;SDS011;60138;55.808;37.078;2023-05-10T03:30:07;16.40;;;9.48;;
70213;SDS011;60138;55.808;37.078;2023-05-10T03:32:36;17.30;;;8.98;;
70213;SDS011;60138;55.808;37.078;2023-05-10T03:35:11;18.23;;;8.83;;
70213;SDS011;60138;55.808;37.078;2023-05-10T03:37:37;18.42;;;9.52;;
70213;SDS011;60138;55.808;37.078;2023-05-10T03:40:04;16.13;;;8.18;;
70213;SDS011;60138;55.808;37.078;2023-05-10T03:42:33;14.55;;;8.30;;
70213;SDS011;60138;55.808;37.078;2023-05-10T03:44:59;13.70;;;8.57;;
70213;SDS011;60138;55.808;37.078;2023-05-10T03:47:24;16.65;;;7.13;;
70213;SDS011;60138;55.808;37.078;2023-05-10T03:49:50;14.73;;;8.10;;
70213;SDS011;60138;55.808;37.078;2023-05-10T03:52:17;13.73;;;7.13;;
70213;SDS011;60138;55.808;37.078;2023-05-10T03:54:42;12.40;;;6.82;;
70213;SDS011;60138;55.808;37.078;2023-05-10T03:57:08;13.83;;;8.57;;
70213;SDS011;60138;55.808;37.078;2023-05-10T03:59:34;13.52;;;7.85;;
70213;SDS011;60138;55.808;37.078;2023-05-10T04:02:00;14.63;;;6.90;;
70213;SDS011;60138;55.808;37.078;2023-05-10T04:04:25;13.02;;;7.50;;
70213;SDS011;60138;55.808;37.078;2023-05-10T04:06:51;14.32;;;7.90;;
70213;SDS011;60138;55.808;37.078;2023-05-10T04:09:18;15.82;;;8.70;;
70213;SDS011;60138;55.808;37.078;2023-05-10T04:11:43;16.90;;;6.97;;
70213;SDS011;60138;55.808;37.078;2023-05-10T04:14:09;11.00;;;7.35;;
70213;SDS011;60138;55.808;37.078;2023-05-10T04:16:35;11.80;;;7.43;;
70213;SDS011;60138;55.808;37.078;2023-05-10T04:19:00;13.13;;;7.70;;
70213;SDS011;60138;55.808;37.078;2023-05-10T04:21:26;15.07;;;8.02;;
70213;SDS011;60138;55.808;37.078;2023-05-10T04:23:52;13.87;;;7.77;;
70213;SDS011;60138;55.808;37.078;2023-05-10T04:26:17;11.15;;;6.43;;
70213;SDS011;60138;55.808;37.078;2023-05-10T04:28:43;13.07;;;6.20;;
70213;SDS011;60138;55.808;37.078;2023-05-10T04:31:09;13.57;;;6.97;;
70213;SDS011;60138;55.808;37.078;2023-05-10T04:33:35;16.00;;;7.13;;
70213;SDS011;60138;55.808;37.078;2023-05-10T04:36:01;13.65;;;6.20;;
70213;SDS011;60138;55.808;37.078;2023-05-10T04:38:28;14.35;;;7.32;;
70213;SDS011;60138;55.808;37.078;2023-05-10T04:40:54;15.02;;;6.93;;
70213;SDS011;60138;55.808;37.078;2023-05-10T04:43:19;11.83;;;6.03;;
70213;SDS011;60138;55.808;37.078;2023-05-10T04:45:45;13.65;;;7.57;;
70213;SDS011;60138;55.808;37.078;2023-05-10T04:48:11;10.20;;;6.30;;
70213;SDS011;60138;55.808;37.078;2023-05-10T04:50:37;10.88;;;6.82;;
70213;SDS011;60138;55.808;37.078;2023-05-10T04:53:04;13.93;;;5.97;;
70213;SDS011;60138;55.808;37.078;2023-05-10T04:55:29;12.37;;;6.73;;
70213;SDS011;60138;55.808;37.078;2023-05-10T04:57:55;11.02;;;7.30;;
70213;SDS011;60138;55.808;37.078;2023-05-10T05:00:21;13.07;;;5.83;;
70213;SDS011;60138;55.808;37.078;2023-05-10T05:02:46;18.40;;;6.13;;
70213;SDS011;60138;55.808;37.078;2023-05-10T05:05:12;10.57;;;6.23;;
70213;SDS011;60138;55.808;37.078;2023-05-10T05:07:38;12.93;;;6.13;;
70213;SDS011;60138;55.808;37.078;2023-05-10T05:10:07;12.93;;;6.43;;
70213;SDS011;60138;55.808;37.078;2023-05-10T05:12:34;11.45;;;6.72;;
70213;SDS011;60138;55.808;37.078;2023-05-10T05:15:01;11.98;;;5.60;;
70213;SDS011;60138;55.808;37.078;2023-05-10T05:17:30;8.20;;;5.70;;
70213;SDS011;60138;55.808;37.078;2023-05-10T05:19:55;14.17;;;5.87;;
70213;SDS011;60138;55.808;37.078;2023-05-10T05:22:21;12.40;;;5.93;;
70213;SDS011;60138;55.808;37.078;2023-05-10T05:24:47;12.67;;;5.47;;
70213;SDS011;60138;55.808;37.078;2023-05-10T05:27:12;9.77;;;6.28;;
70213;SDS011;60138;55.808;37.078;2023-05-10T05:29:38;19.00;;;6.17;;
70213;SDS011;60138;55.808;37.078;2023-05-10T05:32:04;12.27;;;5.40;;
70213;SDS011;60138;55.808;37.078;2023-05-10T05:34:30;12.35;;;5.32;;
70213;SDS011;60138;55.808;37.078;2023-05-10T05:36:55;10.88;;;5.38;;
70213;SDS011;60138;55.808;37.078;2023-05-10T05:39:21;11.87;;;5.33;;
70213;SDS011;60138;55.808;37.078;2023-05-10T05:41:47;10.15;;;5.20;;
70213;SDS011;60138;55.808;37.078;2023-05-10T05:44:12;9.33;;;4.70;;
70213;SDS011;60138;55.808;37.078;2023-05-10T05:46:38;9.75;;;4.95;;
70213;SDS011;60138;55.808;37.078;2023-05-10T05:49:03;7.47;;;3.92;;
70213;SDS011;60138;55.808;37.078;2023-05-10T05:51:29;10.20;;;5.23;;
70213;SDS011;60138;55.808;37.078;2023-05-10T05:53:56;9.60;;;4.75;;
70213;SDS011;60138;55.808;37.078;2023-05-10T05:56:21;7.93;;;4.38;;
70213;SDS011;60138;55.808;37.078;2023-05-10T05:58:47;10.18;;;4.43;;
70213;SDS011;60138;55.808;37.078;2023-05-10T06:01:13;11.52;;;4.32;;
70213;SDS011;60138;55.808;37.078;2023-05-10T06:03:39;10.27;;;4.30;;
70213;SDS011;60138;55.808;37.078;2023-05-10T06:06:04;9.68;;;4.68;;
70213;SDS011;60138;55.808;37.078;2023-05-10T06:08:30;7.63;;;4.10;;
70213;SDS011;60138;55.808;37.078;2023-05-10T06:10:56;6.85;;;4.13;;
70213;SDS011;60138;55.808;37.078;2023-05-10T06:13:21;11.90;;;5.05;;
70213;SDS011;60138;55.808;37.078;2023-05-10T06:15:47;9.47;;;4.70;;
70213;SDS011;60138;55.808;37.078;2023-05-10T06:18:13;8.48;;;4.43;;
70213;SDS011;60138;55.808;37.078;2023-05-10T06:20:38;8.07;;;3.83;;
70213;SDS011;60138;55.808;37.078;2023-05-10T06:23:06;8.75;;;4.00;;
70213;SDS011;60138;55.808;37.078;2023-05-10T06:25:31;7.40;;;3.40;;
70213;SDS011;60138;55.808;37.078;2023-05-10T06:27:57;9.65;;;3.97;;
70213;SDS011;60138;55.808;37.078;2023-05-10T06:30:23;12.87;;;4.50;;
70213;SDS011;60138;55.808;37.078;2023-05-10T06:32:49;9.40;;;4.13;;
70213;SDS011;60138;55.808;37.078;2023-05-10T06:35:15;7.07;;;3.67;;
70213;SDS011;60138;55.808;37.078;2023-05-10T06:37:41;9.88;;;4.00;;
70213;SDS011;60138;55.808;37.078;2023-05-10T06:40:07;6.77;;;3.83;;
70213;SDS011;60138;55.808;37.078;2023-05-10T06:42:33;9.60;;;3.90;;
70213;SDS011;60138;55.808;37.078;2023-05-10T06:44:59;9.57;;;4.35;;
70213;SDS011;60138;55.808;37.078;2023-05-10T06:47:24;8.77;;;3.73;;
70213;SDS011;60138;55.808;37.078;2023-05-10T06:49:50;12.20;;;4.53;;
70213;SDS011;60138;55.808;37.078;2023-05-10T06:52:16;6.53;;;3.63;;
70213;SDS011;60138;55.808;37.078;2023-05-10T06:54:41;6.03;;;3.22;;
70213;SDS011;60138;55.808;37.078;2023-05-10T06:57:07;6.70;;;2.85;;
70213;SDS011;60138;55.808;37.078;2023-05-10T06:59:32;7.90;;;2.53;;
70213;SDS011;60138;55.808;37.078;2023-05-10T07:01:58;8.70;;;3.40;;
70213;SDS011;60138;55.808;37.078;2023-05-10T07:04:24;8.43;;;2.77;;
70213;SDS011;60138;55.808;37.078;2023-05-10T07:06:49;6.53;;;2.40;;
70213;SDS011;60138;55.808;37.078;2023-05-10T07:09:15;5.67;;;2.80;;
70213;SDS011;60138;55.808;37.078;2023-05-10T07:11:41;6.63;;;2.90;;
70213;SDS011;60138;55.808;37.078;2023-05-10T07:14:06;5.63;;;3.07;;
70213;SDS011;60138;55.808;37.078;2023-05-10T07:16:32;6.38;;;3.30;;
70213;SDS011;60138;55.808;37.078;2023-05-10T07:18:58;4.85;;;2.80;;
70213;SDS011;60138;55.808;37.078;2023-05-10T07:21:24;4.93;;;2.40;;
70213;SDS011;60138;55.808;37.078;2023-05-10T07:23:49;8.07;;;3.10;;
70213;SDS011;60138;55.808;37.078;2023-05-10T07:26:15;7.38;;;2.90;;
70213;SDS011;60138;55.808;37.078;2023-05-10T07:28:41;7.70;;;3.17;;
70213;SDS011;60138;55.808;37.078;2023-05-10T07:31:07;9.50;;;3.47;;
70213;SDS011;60138;55.808;37.078;2023-05-10T07:33:33;6.40;;;2.53;;
70213;SDS011;60138;55.808;37.078;2023-05-10T07:35:58;5.80;;;3.10;;
70213;SDS011;60138;55.808;37.078;2023-05-10T07:38:24;6.47;;;3.23;;
70213;SDS011;60138;55.808;37.078;2023-05-10T07:40:50;6.75;;;3.65;;
70213;SDS011;60138;55.808;37.078;2023-05-10T07:43:15;6.30;;;3.20;;
70213;SDS011;60138;55.808;37.078;2023-05-10T07:45:41;7.13;;;2.80;;
70213;SDS011;60138;55.808;37.078;2023-05-10T07:48:07;5.60;;;2.70;;
70213;SDS011;60138;55.808;37.078;2023-05-10T07:50:32;7.18;;;2.83;;
70213;SDS011;60138;55.808;37.078;2023-05-10T07:52:58;6.40;;;2.77;;
70213;SDS011;60138;55.808;37.078;2023-05-10T07:55:24;7.07;;;2.97;;
70213;SDS011;60138;55.808;37.078;2023-05-10T07:57:49;3.50;;;1.95;;
70213;SDS011;60138;55.808;37.078;2023-05-10T08:00:17;4.17;;;2.27;;
70213;SDS011;60138;55.808;37.078;2023-05-10T08:02:44;4.90;;;2.05;;
70213;SDS011;60138;55.808;37.078;2023-05-10T08:05:09;5.57;;;2.30;;
70213;SDS011;60138;55.808;37.078;2023-05-10T08:07:35;4.67;;;2.33;;
70213;SDS011;60138;55.808;37.078;2023-05-10T08:10:02;3.88;;;2.22;;
70213;SDS011;60138;55.808;37.078;2023-05-10T08:12:31;5.13;;;2.07;;
70213;SDS011;60138;55.808;37.078;2023-05-10T08:14:56;4.47;;;2.33;;
70213;SDS011;60138;55.808;37.078;2023-05-10T08:17:22;5.73;;;2.87;;
70213;SDS011;60138;55.808;37.078;2023-05-10T08:19:48;4.72;;;2.03;;
70213;SDS011;60138;55.808;37.078;2023-05-10T08:22:13;3.27;;;1.90;;
70213;SDS011;60138;55.808;37.078;2023-05-10T08:24:39;4.70;;;2.05;;
70213;SDS011;60138;55.808;37.078;2023-05-10T08:27:05;7.27;;;2.37;;
70213;SDS011;60138;55.808;37.078;2023-05-10T08:29:31;4.38;;;2.75;;
70213;SDS011;60138;55.808;37.078;2023-05-10T08:31:56;6.40;;;2.37;;
70213;SDS011;60138;55.808;37.078;2023-05-10T08:34:22;9.32;;;2.92;;
70213;SDS011;60138;55.808;37.078;2023-05-10T08:36:48;4.80;;;2.53;;
70213;SDS011;60138;55.808;37.078;2023-05-10T08:39:13;3.72;;;2.10;;
70213;SDS011;60138;55.808;37.078;2023-05-10T08:41:39;6.03;;;1.90;;
70213;SDS011;60138;55.808;37.078;2023-05-10T08:44:08;4.95;;;2.40;;
70213;SDS011;60138;55.808;37.078;2023-05-10T08:46:34;5.78;;;2.13;;
70213;SDS011;60138;55.808;37.078;2023-05-10T08:49:03;4.30;;;1.87;;
70213;SDS011;60138;55.808;37.078;2023-05-10T08:51:30;6.55;;;2.03;;
70213;SDS011;60138;55.808;37.078;2023-05-10T08:54:01;5.63;;;2.60;;
70213;SDS011;60138;55.808;37.078;2023-05-10T08:56:27;7.18;;;1.95;;
70213;SDS011;60138;55.808;37.078;2023-05-10T08:58:53;6.03;;;1.98;;
70213;SDS011;60138;55.808;37.078;2023-05-10T09:01:19;3.97;;;2.13;;
70213;SDS011;60138;55.808;37.078;2023-05-10T09:03:46;5.28;;;2.13;;
70213;SDS011;60138;55.808;37.078;2023-05-10T09:06:13;3.72;;;2.38;;
70213;SDS011;60138;55.808;37.078;2023-05-10T09:08:38;11.17;;;3.43;;
70213;SDS011;60138;55.808;37.078;2023-05-10T09:11:06;17.27;;;2.90;;
70213;SDS011;60138;55.808;37.078;2023-05-10T09:13:32;11.32;;;2.15;;
70213;SDS011;60138;55.808;37.078;2023-05-10T09:15:59;6.13;;;2.00;;
70213;SDS011;60138;55.808;37.078;2023-05-10T09:18:25;49.80;;;8.10;;
70213;SDS011;60138;55.808;37.078;2023-05-10T09:20:51;25.42;;;5.15;;
70213;SDS011;60138;55.808;37.078;2023-05-10T09:23:17;14.90;;;2.63;;
70213;SDS011;60138;55.808;37.078;2023-05-10T09:25:42;9.32;;;2.58;;
70213;SDS011;60138;55.808;37.078;2023-05-10T09:28:08;13.47;;;3.27;;
70213;SDS011;60138;55.808;37.078;2023-05-10T09:30:35;11.13;;;6.00;;
70213;SDS011;60138;55.808;37.078;2023-05-10T09:33:00;4.40;;;2.63;;
70213;SDS011;60138;55.808;37.078;2023-05-10T09:35:27;4.43;;;2.60;;
70213;SDS011;60138;55.808;37.078;2023-05-10T09:37:57;4.18;;;2.75;;
70213;SDS011;60138;55.808;37.078;2023-05-10T09:40:26;3.70;;;2.00;;
70213;SDS011;60138;55.808;37.078;2023-05-10T09:43:03;3.53;;;2.13;;
70213;SDS011;60138;55.808;37.078;2023-05-10T09:45:31;6.55;;;2.53;;
70213;SDS011;60138;55.808;37.078;2023-05-10T09:47:58;4.38;;;2.25;;
70213;SDS011;60138;55.808;37.078;2023-05-10T09:50:25;3.28;;;1.88;;
70213;SDS011;60138;55.808;37.078;2023-05-10T09:52:55;3.17;;;1.95;;
70213;SDS011;60138;55.808;37.078;2023-05-10T09:55:41;3.25;;;1.98;;
70213;SDS011;60138;55.808;37.078;2023-05-10T09:58:08;6.90;;;2.55;;
70213;SDS011;60138;55.808;37.078;2023-05-10T10:00:37;6.25;;;2.17;;
70213;SDS011;60138;55.808;37.078;2023-05-10T10:03:06;7.00;;;3.30;;
70213;SDS011;60138;55.808;37.078;2023-05-10T10:05:39;8.80;;;3.00;;
70213;SDS011;60138;55.808;37.078;2023-05-10T10:08:06;9.02;;;2.80;;
70213;SDS011;60138;55.808;37.078;2023-05-10T10:10:32;5.72;;;2.45;;
70213;SDS011;60138;55.808;37.078;2023-05-10T10:12:58;4.70;;;1.90;;
70213;SDS011;60138;55.808;37.078;2023-05-10T10:15:25;8.10;;;2.15;;
70213;SDS011;60138;55.808;37.078;2023-05-10T10:17:51;4.85;;;1.95;;
70213;SDS011;60138;55.808;37.078;2023-05-10T10:20:18;5.22;;;1.90;;
70213;SDS011;60138;55.808;37.078;2023-05-10T10:22:44;6.03;;;2.13;;
70213;SDS011;60138;55.808;37.078;2023-05-10T10:25:10;3.60;;;1.90;;
70213;SDS011;60138;55.808;37.078;2023-05-10T10:30:39;4.90;;;2.28;;
70213;SDS011;60138;55.808;37.078;2023-05-10T10:35:57;3.85;;;2.20;;
70213;SDS011;60138;55.808;37.078;2023-05-10T10:38:25;4.75;;;2.05;;
70213;SDS011;60138;55.808;37.078;2023-05-10T10:41:10;6.72;;;1.92;;
70213;SDS011;60138;55.808;37.078;2023-05-10T10:47:05;5.63;;;2.83;;
70213;SDS011;60138;55.808;37.078;2023-05-10T10:49:44;7.73;;;2.17;;
70213;SDS011;60138;55.808;37.078;2023-05-10T10:54:50;5.78;;;2.15;;
70213;SDS011;60138;55.808;37.078;2023-05-10T10:57:17;4.13;;;1.90;;
70213;SDS011;60138;55.808;37.078;2023-05-10T10:59:44;3.08;;;1.95;;
70213;SDS011;60138;55.808;37.078;2023-05-10T11:02:26;6.53;;;2.03;;
70213;SDS011;60138;55.808;37.078;2023-05-10T11:05:00;4.22;;;2.08;;
70213;SDS011;60138;55.808;37.078;2023-05-10T11:07:56;4.47;;;1.85;;
70213;SDS011;60138;55.808;37.078;2023-05-10T11:10:23;4.78;;;2.13;;
70213;SDS011;60138;55.808;37.078;2023-05-10T11:12:51;6.65;;;2.33;;
70213;SDS011;60138;55.808;37.078;2023-05-10T11:15:47;5.60;;;2.10;;
70213;SDS011;60138;55.808;37.078;2023-05-10T11:20:50;7.68;;;2.83;;
70213;SDS011;60138;55.808;37.078;2023-05-10T11:23:17;4.38;;;1.98;;
70213;SDS011;60138;55.808;37.078;2023-05-10T11:25:44;5.40;;;2.35;;
70213;SDS011;60138;55.808;37.078;2023-05-10T11:28:13;7.83;;;2.33;;
70213;SDS011;60138;55.808;37.078;2023-05-10T11:30:40;5.15;;;2.50;;
70213;SDS011;60138;55.808;37.078;2023-05-10T11:33:07;8.93;;;2.35;;
70213;SDS011;60138;55.808;37.078;2023-05-10T11:35:39;9.60;;;3.60;;
70213;SDS011;60138;55.808;37.078;2023-05-10T11:38:09;4.38;;;2.40;;
70213;SDS011;60138;55.808;37.078;2023-05-10T11:40:36;7.28;;;2.60;;
70213;SDS011;60138;55.808;37.078;2023-05-10T11:43:03;11.65;;;2.97;;
70213;SDS011;60138;55.808;37.078;2023-05-10T11:45:31;9.25;;;2.90;;
70213;SDS011;60138;55.808;37.078;2023-05-10T11:47:58;6.60;;;3.20;;
70213;SDS011;60138;55.808;37.078;2023-05-10T11:50:24;10.30;;;3.60;;
70213;SDS011;60138;55.808;37.078;2023-05-10T11:52:50;5.90;;;2.35;;
70213;SDS011;60138;55.808;37.078;2023-05-10T11:55:19;6.85;;;2.63;;
70213;SDS011;60138;55.808;37.078;2023-05-10T11:57:45;4.57;;;2.50;;
70213;SDS011;60138;55.808;37.078;2023-05-10T12:00:11;6.13;;;2.20;;
70213;SDS011;60138;55.808;37.078;2023-05-10T12:02:38;5.85;;;2.25;;
70213;SDS011;60138;55.808;37.078;2023-05-10T12:05:04;8.68;;;2.80;;
70213;SDS011;60138;55.808;37.078;2023-05-10T12:07:31;4.30;;;2.33;;
70213;SDS011;60138;55.808;37.078;2023-05-10T12:12:44;8.85;;;2.40;;
70213;SDS011;60138;55.808;37.078;2023-05-10T12:15:11;8.52;;;1.88;;
70213;SDS011;60138;55.808;37.078;2023-05-10T12:17:41;4.25;;;2.20;;
70213;SDS011;60138;55.808;37.078;2023-05-10T12:20:12;5.27;;;1.90;;
70213;SDS011;60138;55.808;37.078;2023-05-10T12:22:46;5.00;;;2.15;;
70213;SDS011;60138;55.808;37.078;2023-05-10T12:25:14;4.88;;;2.28;;
70213;SDS011;60138;55.808;37.078;2023-05-10T12:27:40;5.07;;;2.20;;
70213;SDS011;60138;55.808;37.078;2023-05-10T12:30:06;5.57;;;2.00;;
70213;SDS011;60138;55.808;37.078;2023-05-10T12:32:41;4.80;;;1.90;;
70213;SDS011;60138;55.808;37.078;2023-05-10T12:35:09;11.13;;;2.42;;
70213;SDS011;60138;55.808;37.078;2023-05-10T12:37:34;7.73;;;2.03;;
70213;SDS011;60138;55.808;37.078;2023-05-10T12:40:01;7.63;;;2.47;;
70213;SDS011;60138;55.808;37.078;2023-05-10T12:42:29;8.43;;;2.75;;
70213;SDS011;60138;55.808;37.078;2023-05-10T12:44:55;11.30;;;2.73;;
70213;SDS011;60138;55.808;37.078;2023-05-10T12:47:21;5.68;;;2.30;;
70213;SDS011;60138;55.808;37.078;2023-05-10T12:49:47;6.72;;;2.10;;
70213;SDS011;60138;55.808;37.078;2023-05-10T12:52:13;7.50;;;1.87;;
70213;SDS011;60138;55.808;37.078;2023-05-10T12:54:39;7.13;;;2.08;;
70213;SDS011;60138;55.808;37.078;2023-05-10T12:57:04;9.73;;;2.80;;
70213;SDS011;60138;55.808;37.078;2023-05-10T12:59:30;10.88;;;2.67;;
70213;SDS011;60138;55.808;37.078;2023-05-10T13:01:56;5.07;;;3.00;;
70213;SDS011;60138;55.808;37.078;2023-05-10T13:04:22;4.93;;;2.30;;
70213;SDS011;60138;55.808;37.078;2023-05-10T13:06:48;3.60;;;2.00;;
70213;SDS011;60138;55.808;37.078;2023-05-10T13:09:14;7.17;;;2.00;;
70213;SDS011;60138;55.808;37.078;2023-05-10T13:11:40;7.13;;;2.03;;
70213;SDS011;60138;55.808;37.078;2023-05-10T13:14:05;5.13;;;1.80;;
70213;SDS011;60138;55.808;37.078;2023-05-10T13:16:31;5.23;;;2.00;;
70213;SDS011;60138;55.808;37.078;2023-05-10T13:18:57;3.88;;;1.98;;
70213;SDS011;60138;55.808;37.078;2023-05-10T13:21:22;8.77;;;2.10;;
70213;SDS011;60138;55.808;37.078;2023-05-10T13:23:48;4.85;;;1.98;;
70213;SDS011;60138;55.808;37.078;2023-05-10T13:26:14;6.00;;;2.03;;
70213;SDS011;60138;55.808;37.078;2023-05-10T13:28:40;3.67;;;1.73;;
70213;SDS011;60138;55.808;37.078;2023-05-10T13:31:05;6.07;;;2.20;;
70213;SDS011;60138;55.808;37.078;2023-05-10T13:33:31;4.95;;;2.00;;
70213;SDS011;60138;55.808;37.078;2023-05-10T13:35:56;32.97;;;8.47;;
70213;SDS011;60138;55.808;37.078;2023-05-10T13:38:22;32.88;;;6.72;;
70213;SDS011;60138;55.808;37.078;2023-05-10T13:40:48;16.77;;;4.10;;
70213;SDS011;60138;55.808;37.078;2023-05-10T13:43:13;13.55;;;3.30;;
70213;SDS011;60138;55.808;37.078;2023-05-10T13:45:39;10.87;;;2.33;;
70213;SDS011;60138;55.808;37.078;2023-05-10T13:48:05;5.47;;;2.20;;
70213;SDS011;60138;55.808;37.078;2023-05-10T13:50:30;4.63;;;2.03;;
70213;SDS011;60138;55.808;37.078;2023-05-10T13:52:56;5.18;;;2.15;;
70213;SDS011;60138;55.808;37.078;2023-05-10T13:55:22;8.33;;;2.50;;
70213;SDS011;60138;55.808;37.078;2023-05-10T13:57:48;4.38;;;2.00;;
70213;SDS011;60138;55.808;37.078;2023-05-10T14:00:13;5.37;;;2.13;;
70213;SDS011;60138;55.808;37.078;2023-05-10T14:02:40;4.32;;;2.03;;
70213;SDS011;60138;55.808;37.078;2023-05-10T14:05:05;5.63;;;2.40;;
70213;SDS011;60138;55.808;37.078;2023-05-10T14:07:31;11.23;;;1.95;;
70213;SDS011;60138;55.808;37.078;2023-05-10T14:09:57;8.80;;;2.30;;
70213;SDS011;60138;55.808;37.078;2023-05-10T14:12:22;11.20;;;2.50;;
70213;SDS011;60138;55.808;37.078;2023-05-10T14:14:48;15.07;;;3.80;;
70213;SDS011;60138;55.808;37.078;2023-05-10T14:17:14;9.30;;;2.85;;
70213;SDS011;60138;55.808;37.078;2023-05-10T14:19:39;11.40;;;2.10;;
70213;SDS011;60138;55.808;37.078;2023-05-10T14:22:05;5.50;;;2.30;;
70213;SDS011;60138;55.808;37.078;2023-05-10T14:24:31;4.83;;;2.23;;
70213;SDS011;60138;55.808;37.078;2023-05-10T14:26:56;5.05;;;2.25;;
70213;SDS011;60138;55.808;37.078;2023-05-10T14:29:22;4.10;;;1.80;;
70213;SDS011;60138;55.808;37.078;2023-05-10T14:31:48;5.25;;;1.95;;
70213;SDS011;60138;55.808;37.078;2023-05-10T14:34:14;5.97;;;2.07;;
70213;SDS011;60138;55.808;37.078;2023-05-10T14:36:39;7.72;;;2.40;;
70213;SDS011;60138;55.808;37.078;2023-05-10T14:39:05;11.73;;;2.33;;
70213;SDS011;60138;55.808;37.078;2023-05-10T14:41:31;9.50;;;2.67;;
70213;SDS011;60138;55.808;37.078;2023-05-10T14:43:56;10.87;;;2.87;;
70213;SDS011;60138;55.808;37.078;2023-05-10T14:46:22;5.45;;;2.25;;
70213;SDS011;60138;55.808;37.078;2023-05-10T14:48:48;5.07;;;2.33;;
70213;SDS011;60138;55.808;37.078;2023-05-10T14:51:13;4.03;;;2.72;;
70213;SDS011;60138;55.808;37.078;2023-05-10T14:53:39;6.40;;;2.30;;
70213;SDS011;60138;55.808;37.078;2023-05-10T14:56:05;3.97;;;1.95;;
70213;SDS011;60138;55.808;37.078;2023-05-10T14:58:31;6.70;;;2.30;;
70213;SDS011;60138;55.808;37.078;2023-05-10T15:00:56;5.18;;;2.25;;
70213;SDS011;60138;55.808;37.078;2023-05-10T15:03:22;6.37;;;2.27;;